Time;durP1;ratioP1;P1;durP2;ratioP2;P2;SDS_P1;SDS_P2;PMS_P1;PMS_P2;Temp;Humidity;BMP_temperature;BMP_pressure;BME280_temperature;BME280_humidity;BME280_pressure;Samples;Min_cycle;Max_cycle;Signal;HPM_P1;HPM_P2
2021/08/28 00:00:29;;;;;;;19.20;4.78;;;15.00;99.90;;;;;;4965637;28;20053;-85
2021/08/28 00:02:55;;;;;;;15.05;4.38;;;14.90;99.90;;;;;;4972942;28;20757;-86
2021/08/28 00:05:21;;;;;;;22.67;6.15;;;14.90;99.90;;;;;;4978622;28;20037;-85
2021/08/28 00:07:47;;;;;;;12.70;4.80;;;14.90;99.90;;;;;;4955363;28;20057;-85
2021/08/28 00:10:12;;;;;;;14.15;4.47;;;14.90;99.90;;;;;;4972699;28;20210;-85
2021/08/28 00:12:38;;;;;;;14.30;4.47;;;14.90;99.90;;;;;;4979630;28;20381;-85
2021/08/28 00:15:08;;;;;;;14.25;5.13;;;14.90;99.90;;;;;;4960584;28;20481;-85
2021/08/28 00:17:35;;;;;;;17.98;4.75;;;14.90;99.90;;;;;;4977333;28;20107;-85
2021/08/28 00:20:05;;;;;;;16.83;5.28;;;14.90;99.90;;;;;;4979546;28;20060;-85
2021/08/28 00:22:31;;;;;;;19.75;5.22;;;14.90;99.90;;;;;;4976018;28;20042;-85
2021/08/28 00:24:56;;;;;;;18.17;4.90;;;14.90;99.90;;;;;;4971125;28;20038;-85
2021/08/28 00:27:22;;;;;;;22.33;5.07;;;14.90;99.90;;;;;;4973603;28;20133;-85
2021/08/28 00:29:49;;;;;;;15.80;4.97;;;14.90;99.90;;;;;;4966379;28;20046;-85
2021/08/28 00:32:15;;;;;;;10.80;4.47;;;14.90;99.90;;;;;;4982419;28;20362;-85
2021/08/28 00:34:41;;;;;;;21.00;5.55;;;14.90;99.90;;;;;;4979753;28;20036;-86
2021/08/28 00:37:06;;;;;;;12.60;5.60;;;14.90;99.90;;;;;;4959186;28;20046;-86
2021/08/28 00:39:32;;;;;;;13.45;5.05;;;14.90;99.90;;;;;;4993598;28;20038;-85
2021/08/28 00:41:59;;;;;;;21.52;4.93;;;15.00;99.90;;;;;;4960024;28;20041;-85
2021/08/28 00:44:25;;;;;;;15.50;5.53;;;14.90;99.90;;;;;;4976869;28;20489;-85
2021/08/28 00:46:54;;;;;;;7.55;4.78;;;14.90;99.90;;;;;;4983224;28;20612;-85
2021/08/28 00:49:19;;;;;;;22.85;6.18;;;15.00;99.90;;;;;;4977972;28;20502;-85
2021/08/28 00:51:46;;;;;;;15.50;5.72;;;15.00;99.90;;;;;;4981974;28;20114;-86
2021/08/28 00:54:12;;;;;;;16.15;5.50;;;15.00;99.90;;;;;;4982690;28;20341;-86
2021/08/28 00:56:39;;;;;;;16.98;5.88;;;15.00;99.90;;;;;;4962375;28;20096;-86
2021/08/28 00:59:05;;;;;;;20.02;5.22;;;15.00;99.90;;;;;;4976897;28;20049;-85
2021/08/28 01:01:42;;;;;;;17.48;5.80;;;15.00;99.90;;;;;;4973005;28;20337;-85
2021/08/28 01:04:10;;;;;;;16.98;6.18;;;15.00;99.90;;;;;;4979311;28;20563;-85
2021/08/28 01:06:46;;;;;;;18.55;6.07;;;15.00;99.90;;;;;;4999935;28;20053;-85
2021/08/28 01:09:21;;;;;;;15.40;5.47;;;15.00;99.90;;;;;;4983187;28;20042;-86
2021/08/28 01:12:15;;;;;;;15.45;5.32;;;15.10;99.90;;;;;;4978004;28;20432;-86
2021/08/28 01:14:44;;;;;;;16.98;5.85;;;15.00;99.90;;;;;;4995682;28;20049;-86
2021/08/28 01:17:13;;;;;;;19.13;5.65;;;15.00;99.90;;;;;;4983498;28;20041;-86
2021/08/28 01:19:57;;;;;;;16.63;6.35;;;15.10;99.90;;;;;;5001484;28;20513;-86
2021/08/28 01:22:24;;;;;;;20.42;5.60;;;15.10;99.90;;;;;;4997788;28;20034;-86
2021/08/28 01:24:50;;;;;;;18.23;5.68;;;15.10;99.90;;;;;;4960650;28;20668;-85
2021/08/28 01:27:49;;;;;;;13.65;5.40;;;15.10;99.90;;;;;;4963612;28;20080;-85
2021/08/28 01:30:15;;;;;;;15.50;5.82;;;15.10;99.90;;;;;;4982400;28;20041;-86
2021/08/28 01:32:44;;;;;;;16.77;5.70;;;15.10;99.90;;;;;;4998769;28;20149;-84
2021/08/28 01:35:10;;;;;;;15.75;6.47;;;15.10;99.90;;;;;;4979367;28;20042;-86
2021/08/28 01:37:40;;;;;;;18.67;6.10;;;15.10;99.90;;;;;;4960585;28;20499;-86
2021/08/28 01:40:07;;;;;;;15.20;6.30;;;15.20;99.90;;;;;;4989437;28;20040;-85
2021/08/28 01:42:35;;;;;;;16.92;6.32;;;15.20;99.90;;;;;;4998685;28;20116;-85
2021/08/28 01:45:02;;;;;;;15.82;6.00;;;15.20;99.90;;;;;;4978049;28;20038;-85
2021/08/28 01:47:29;;;;;;;16.85;6.28;;;15.20;99.90;;;;;;4985831;28;20084;-86
2021/08/28 01:49:55;;;;;;;23.02;6.97;;;15.20;99.90;;;;;;4980450;28;20045;-85
2021/08/28 01:52:22;;;;;;;16.75;6.40;;;15.20;99.90;;;;;;4976267;28;20578;-85
2021/08/28 01:54:52;;;;;;;18.05;6.47;;;15.30;99.90;;;;;;4964488;28;20508;-85
2021/08/28 01:57:19;;;;;;;19.40;6.68;;;15.20;99.90;;;;;;4979437;28;20056;-85
2021/08/28 01:59:44;;;;;;;13.65;6.03;;;15.20;99.90;;;;;;4987250;28;20113;-85
2021/08/28 02:02:10;;;;;;;15.13;6.22;;;15.30;99.90;;;;;;4986382;28;20125;-85
2021/08/28 02:04:37;;;;;;;17.10;6.22;;;15.30;99.90;;;;;;4980713;28;20042;-84
2021/08/28 02:07:27;;;;;;;16.23;5.88;;;15.30;99.90;;;;;;4968077;28;20042;-86
2021/08/28 02:10:00;;;;;;;14.27;6.47;;;15.30;99.90;;;;;;4994434;28;21612;-85
2021/08/28 02:12:42;;;;;;;16.67;6.30;;;15.30;99.90;;;;;;4980904;28;20512;-85
2021/08/28 02:15:21;;;;;;;21.67;6.67;;;15.30;99.90;;;;;;4994283;28;20119;-85
2021/08/28 02:18:10;;;;;;;18.17;6.40;;;15.30;99.90;;;;;;4996042;28;20719;-86
2021/08/28 02:20:40;;;;;;;20.10;6.93;;;15.30;99.90;;;;;;5003644;28;20076;-85
2021/08/28 02:23:10;;;;;;;22.50;6.20;;;15.30;99.90;;;;;;4980596;28;20076;-85
2021/08/28 02:26:02;;;;;;;15.25;6.00;;;15.30;99.90;;;;;;4979940;28;20033;-85
2021/08/28 02:28:37;;;;;;;16.17;6.00;;;15.30;99.90;;;;;;5000564;28;20407;-85
2021/08/28 02:31:04;;;;;;;16.15;6.15;;;15.30;99.90;;;;;;4983252;28;20033;-85
2021/08/28 02:33:32;;;;;;;10.73;5.18;;;15.30;99.90;;;;;;4982704;28;20424;-86
2021/08/28 02:35:59;;;;;;;18.50;6.60;;;15.30;99.90;;;;;;4987331;28;20510;-85
2021/08/28 02:38:27;;;;;;;14.88;5.68;;;15.30;99.90;;;;;;4946979;28;20283;-86
2021/08/28 02:40:56;;;;;;;16.05;6.07;;;15.30;99.90;;;;;;4976404;28;20029;-85
2021/08/28 02:43:23;;;;;;;19.40;5.78;;;15.30;99.90;;;;;;4996663;28;20124;-85
2021/08/28 02:45:52;;;;;;;17.65;5.95;;;15.30;99.90;;;;;;4978519;28;20045;-85
2021/08/28 02:48:21;;;;;;;14.85;5.80;;;15.30;99.90;;;;;;4978877;28;20038;-85
2021/08/28 02:50:48;;;;;;;12.38;5.43;;;15.30;99.90;;;;;;4981757;28;20098;-85
2021/08/28 02:53:16;;;;;;;17.85;6.13;;;15.30;99.90;;;;;;4982553;28;20483;-85
2021/08/28 02:55:45;;;;;;;18.20;5.50;;;15.30;99.90;;;;;;4977046;28;20043;-84
2021/08/28 02:58:15;;;;;;;15.63;5.40;;;15.30;99.90;;;;;;4979774;28;20037;-86
2021/08/28 03:00:44;;;;;;;11.45;4.50;;;15.30;99.90;;;;;;4995137;28;20081;-85
2021/08/28 03:03:13;;;;;;;13.25;4.78;;;15.30;99.90;;;;;;4963385;28;20034;-86
2021/08/28 03:05:40;;;;;;;9.52;4.85;;;15.40;99.90;;;;;;4987704;28;20037;-86
2021/08/28 03:08:07;;;;;;;11.10;4.90;;;15.30;99.90;;;;;;4996233;28;20120;-84
2021/08/28 03:10:33;;;;;;;14.93;5.88;;;15.30;99.90;;;;;;4998114;28;20137;-85
2021/08/28 03:12:58;;;;;;;14.60;5.43;;;15.30;99.90;;;;;;4982165;28;20038;-85
2021/08/28 03:15:24;;;;;;;11.75;5.10;;;15.30;99.90;;;;;;4971776;28;20064;-86
2021/08/28 03:17:50;;;;;;;15.13;6.57;;;15.40;99.90;;;;;;4985161;28;20412;-87
2021/08/28 03:20:17;;;;;;;16.45;5.93;;;15.40;99.90;;;;;;4973745;28;20481;-85
2021/08/28 03:22:44;;;;;;;13.98;5.97;;;15.40;99.90;;;;;;4946670;28;20038;-86
2021/08/28 03:25:10;;;;;;;16.70;6.15;;;15.40;99.90;;;;;;4991339;28;20051;-84
2021/08/28 03:27:39;;;;;;;17.65;6.05;;;15.40;99.90;;;;;;4976377;28;20042;-85
2021/08/28 03:30:07;;;;;;;14.35;6.32;;;15.40;99.90;;;;;;4993695;28;20038;-85
2021/08/28 03:32:35;;;;;;;16.13;6.40;;;15.40;99.90;;;;;;4973884;28;20130;-85
2021/08/28 03:35:01;;;;;;;15.57;5.82;;;15.40;99.90;;;;;;4999458;28;20536;-85
2021/08/28 03:37:26;;;;;;;17.55;6.78;;;15.50;99.90;;;;;;4987790;28;20120;-86
2021/08/28 03:39:54;;;;;;;11.68;5.97;;;15.50;99.90;;;;;;4985059;28;20196;-86
2021/08/28 03:42:20;;;;;;;11.88;6.28;;;15.50;99.90;;;;;;4965265;28;20072;-86
2021/08/28 03:44:45;;;;;;;16.55;6.35;;;15.50;99.90;;;;;;4981273;28;20042;-85
2021/08/28 03:47:14;;;;;;;14.63;6.45;;;15.50;99.90;;;;;;4964777;28;20071;-85
2021/08/28 03:49:40;;;;;;;17.38;7.18;;;15.50;99.90;;;;;;4977311;28;20046;-85
2021/08/28 03:52:06;;;;;;;17.20;7.10;;;15.50;99.90;;;;;;4984572;28;20939;-85
2021/08/28 03:54:32;;;;;;;13.57;6.57;;;15.50;99.90;;;;;;4961529;28;20045;-85
2021/08/28 03:56:58;;;;;;;14.45;6.68;;;15.50;99.90;;;;;;4999575;28;20041;-86
2021/08/28 03:59:23;;;;;;;18.55;6.85;;;15.50;99.90;;;;;;4962003;28;20041;-86
2021/08/28 04:01:49;;;;;;;17.27;7.20;;;15.50;99.90;;;;;;4983800;28;20401;-85
2021/08/28 04:04:15;;;;;;;19.80;6.90;;;15.50;99.90;;;;;;4980657;28;20504;-86
2021/08/28 04:06:41;;;;;;;23.00;8.60;;;15.50;99.90;;;;;;4967831;28;20104;-85
2021/08/28 04:09:07;;;;;;;16.45;6.85;;;15.50;99.90;;;;;;4962520;28;20034;-85
2021/08/28 04:11:32;;;;;;;18.73;8.00;;;15.50;99.90;;;;;;4994716;28;20496;-85
2021/08/28 04:13:58;;;;;;;21.27;7.45;;;15.50;99.90;;;;;;4951588;28;20040;-85
2021/08/28 04:16:24;;;;;;;20.45;7.53;;;15.50;99.90;;;;;;4964596;28;20148;-85
2021/08/28 04:18:49;;;;;;;19.27;6.85;;;15.50;99.90;;;;;;4961896;28;20457;-85
2021/08/28 04:21:15;;;;;;;18.95;7.13;;;15.50;99.90;;;;;;4981727;28;20438;-85
2021/08/28 04:23:41;;;;;;;13.82;7.15;;;15.50;99.90;;;;;;4967381;28;20038;-85
2021/08/28 04:26:07;;;;;;;15.27;7.57;;;15.50;99.90;;;;;;4994412;28;20167;-85
2021/08/28 04:28:32;;;;;;;17.23;7.50;;;15.50;99.90;;;;;;4959875;28;20038;-85
2021/08/28 04:30:58;;;;;;;18.30;7.35;;;15.50;99.90;;;;;;4978385;28;20501;-85
2021/08/28 04:33:24;;;;;;;21.02;8.00;;;15.50;99.90;;;;;;4979051;28;21067;-85
2021/08/28 04:35:51;;;;;;;20.80;7.13;;;15.50;99.90;;;;;;4972220;28;20045;-86
2021/08/28 04:38:17;;;;;;;17.58;7.78;;;15.50;99.90;;;;;;4985322;28;20038;-88
2021/08/28 04:40:43;;;;;;;19.25;7.90;;;15.50;99.90;;;;;;4982760;28;20087;-87
2021/08/28 04:43:09;;;;;;;19.50;7.60;;;15.40;99.90;;;;;;4975307;28;20033;-87
2021/08/28 04:45:35;;;;;;;14.98;7.72;;;15.50;99.90;;;;;;5007173;28;20073;-88
2021/08/28 04:48:00;;;;;;;22.58;7.93;;;15.50;99.90;;;;;;4972399;28;20045;-86
2021/08/28 04:50:26;;;;;;;19.10;7.90;;;15.50;99.90;;;;;;4986332;28;20049;-89
2021/08/28 04:52:52;;;;;;;16.80;7.38;;;15.50;99.90;;;;;;4993301;28;20493;-89
2021/08/28 04:55:18;;;;;;;19.95;7.65;;;15.50;99.90;;;;;;4975567;28;20160;-91
2021/08/28 04:57:43;;;;;;;17.13;7.72;;;15.60;99.90;;;;;;4968535;28;20034;-88
2021/08/28 05:00:10;;;;;;;17.63;7.30;;;15.60;99.90;;;;;;4998162;28;20050;-85
2021/08/28 05:02:36;;;;;;;19.40;7.57;;;15.60;99.90;;;;;;4984506;28;20037;-88
2021/08/28 05:05:01;;;;;;;17.00;7.75;;;15.50;99.90;;;;;;4986876;28;20042;-87
2021/08/28 05:07:28;;;;;;;21.00;6.90;;;15.50;99.90;;;;;;4999489;28;20068;-84
2021/08/28 05:09:54;;;;;;;16.67;7.57;;;15.60;99.90;;;;;;4996530;28;20469;-87
2021/08/28 05:12:20;;;;;;;16.33;6.63;;;15.60;99.90;;;;;;4984618;28;20026;-84
2021/08/28 05:14:46;;;;;;;15.45;6.28;;;15.60;99.90;;;;;;4982166;28;20038;-88
2021/08/28 05:17:11;;;;;;;21.00;6.93;;;15.60;99.90;;;;;;4982856;28;20072;-86
2021/08/28 05:19:37;;;;;;;22.67;6.90;;;15.60;99.90;;;;;;4982832;28;20315;-85
2021/08/28 05:22:03;;;;;;;18.75;7.10;;;15.60;99.90;;;;;;4992831;28;20046;-87
2021/08/28 05:24:31;;;;;;;17.02;7.13;;;15.60;99.90;;;;;;4998246;28;20040;-86
2021/08/28 05:26:56;;;;;;;16.55;6.47;;;15.70;99.90;;;;;;4998841;28;20029;-88
2021/08/28 05:29:22;;;;;;;15.45;7.05;;;15.70;99.90;;;;;;5011867;28;20042;-86
2021/08/28 05:31:48;;;;;;;15.43;7.30;;;15.70;99.90;;;;;;4995043;28;20077;-87
2021/08/28 05:34:13;;;;;;;16.42;6.72;;;15.80;99.90;;;;;;4981025;28;20460;-86
2021/08/28 05:36:39;;;;;;;17.00;6.50;;;15.80;99.90;;;;;;4963316;28;20045;-92
2021/08/28 05:39:05;;;;;;;18.63;6.63;;;15.80;99.90;;;;;;4981872;28;20034;-85
2021/08/28 05:41:32;;;;;;;14.77;6.35;;;15.80;99.90;;;;;;4992172;28;20044;-83
2021/08/28 05:43:58;;;;;;;15.02;5.97;;;15.80;99.90;;;;;;4977941;28;20125;-86
2021/08/28 05:46:23;;;;;;;13.20;6.35;;;15.80;99.90;;;;;;4961929;28;20126;-90
2021/08/28 05:48:49;;;;;;;11.98;5.50;;;15.80;99.90;;;;;;4960540;28;20096;-84
2021/08/28 05:51:15;;;;;;;15.90;6.85;;;15.90;99.90;;;;;;4963253;28;20046;-86
2021/08/28 05:53:41;;;;;;;17.75;5.97;;;15.90;99.90;;;;;;4987408;28;20052;-89
2021/08/28 05:56:07;;;;;;;15.27;6.70;;;15.90;99.90;;;;;;4987885;28;20440;-86
2021/08/28 05:58:33;;;;;;;13.00;5.85;;;15.90;99.90;;;;;;4971944;28;20100;-90
2021/08/28 06:00:59;;;;;;;14.80;6.63;;;15.90;99.90;;;;;;4987314;28;20048;-87
2021/08/28 06:03:25;;;;;;;19.23;6.78;;;15.90;99.90;;;;;;4972228;28;20033;-85
2021/08/28 06:05:50;;;;;;;19.73;6.28;;;15.90;99.90;;;;;;4968941;28;20045;-86
2021/08/28 06:08:20;;;;;;;13.38;5.70;;;15.90;99.90;;;;;;4966464;28;20504;-86
2021/08/28 06:10:45;;;;;;;15.18;6.35;;;16.00;99.90;;;;;;4988225;28;20424;-88
2021/08/28 06:13:11;;;;;;;11.85;5.53;;;16.00;99.90;;;;;;4979608;28;20045;-87
2021/08/28 06:15:37;;;;;;;18.27;6.10;;;16.00;99.90;;;;;;4984547;28;20041;-86
2021/08/28 06:18:03;;;;;;;17.85;6.07;;;16.00;99.90;;;;;;4981954;28;20046;-87
2021/08/28 06:20:29;;;;;;;18.08;6.40;;;16.00;99.90;;;;;;4985080;28;20044;-84
2021/08/28 06:22:55;;;;;;;15.45;5.90;;;16.10;99.90;;;;;;4981220;28;20045;-86
2021/08/28 06:25:21;;;;;;;22.88;6.10;;;16.10;99.90;;;;;;4972108;28;20097;-83
2021/08/28 06:27:47;;;;;;;17.50;6.43;;;16.10;99.90;;;;;;4983817;28;20045;-87
2021/08/28 06:30:13;;;;;;;17.17;6.22;;;16.10;99.90;;;;;;5002053;28;20061;-87
2021/08/28 06:32:39;;;;;;;17.15;5.90;;;16.20;99.90;;;;;;4979897;28;20042;-85
2021/08/28 06:35:04;;;;;;;16.48;6.40;;;16.20;99.90;;;;;;4978251;28;20125;-82
2021/08/28 06:37:30;;;;;;;16.80;5.88;;;16.20;99.90;;;;;;4996925;28;20109;-81
2021/08/28 06:39:56;;;;;;;14.35;6.05;;;16.20;99.90;;;;;;4984402;28;20065;-86
2021/08/28 06:42:23;;;;;;;19.10;6.07;;;16.20;99.90;;;;;;4997886;28;20038;-85
2021/08/28 06:44:49;;;;;;;17.17;5.65;;;16.20;99.90;;;;;;4975139;28;20042;-87
2021/08/28 06:47:15;;;;;;;17.98;6.47;;;16.20;99.90;;;;;;5012989;28;20311;-84
2021/08/28 06:49:40;;;;;;;17.55;5.25;;;16.30;99.90;;;;;;4999190;28;20137;-86
2021/08/28 06:52:06;;;;;;;15.43;5.90;;;16.30;99.90;;;;;;4981571;28;20749;-85
2021/08/28 06:54:32;;;;;;;13.95;5.22;;;16.30;99.90;;;;;;4998966;28;20041;-84
2021/08/28 06:56:58;;;;;;;13.88;5.40;;;16.30;99.90;;;;;;4977918;28;20045;-82
2021/08/28 06:59:23;;;;;;;13.20;5.47;;;16.30;99.90;;;;;;4984740;28;20034;-82
2021/08/28 07:01:49;;;;;;;13.18;5.30;;;16.40;99.90;;;;;;4963093;28;20559;-85
2021/08/28 07:04:15;;;;;;;12.13;5.28;;;16.40;99.90;;;;;;4963095;28;20030;-84
2021/08/28 07:06:41;;;;;;;15.50;5.63;;;16.40;99.90;;;;;;4984680;28;20068;-82
2021/08/28 07:09:06;;;;;;;12.15;5.30;;;16.40;99.90;;;;;;4999381;28;20101;-81
2021/08/28 07:11:32;;;;;;;16.63;5.50;;;16.40;99.90;;;;;;4981245;28;20045;-82
2021/08/28 07:13:58;;;;;;;12.77;5.10;;;16.50;99.90;;;;;;4993302;28;20054;-83
2021/08/28 07:16:27;;;;;;;13.00;4.97;;;16.50;99.90;;;;;;4980557;28;20076;-83
2021/08/28 07:18:53;;;;;;;12.98;5.18;;;16.50;99.90;;;;;;4976290;28;20034;-83
2021/08/28 07:21:19;;;;;;;12.35;5.10;;;16.60;99.90;;;;;;4987663;28;20504;-85
2021/08/28 07:23:46;;;;;;;18.95;5.70;;;16.60;99.90;;;;;;5014934;28;20038;-85
2021/08/28 07:26:16;;;;;;;15.30;5.57;;;16.70;99.90;;;;;;4993797;28;20064;-88
2021/08/28 07:28:45;;;;;;;13.90;5.30;;;16.80;99.90;;;;;;4996576;28;20064;-84
2021/08/28 07:31:11;;;;;;;13.00;4.90;;;16.80;99.90;;;;;;4984345;28;20049;-87
2021/08/28 07:33:37;;;;;;;8.57;4.40;;;16.80;99.90;;;;;;4989674;28;20038;-84
2021/08/28 07:36:03;;;;;;;14.23;4.60;;;16.90;99.90;;;;;;4998797;28;20068;-85
2021/08/28 07:38:29;;;;;;;10.50;4.75;;;16.90;99.90;;;;;;4985227;28;20041;-84
2021/08/28 07:40:55;;;;;;;14.13;4.88;;;16.90;99.90;;;;;;4975443;28;20034;-88
2021/08/28 07:43:21;;;;;;;18.88;5.22;;;17.00;99.90;;;;;;5005019;28;20051;-85
2021/08/28 07:45:46;;;;;;;13.23;4.35;;;17.00;99.90;;;;;;4991814;28;20038;-83
2021/08/28 07:48:12;;;;;;;14.57;5.07;;;17.10;99.90;;;;;;4983451;28;20127;-87
2021/08/28 07:50:38;;;;;;;11.95;4.47;;;17.10;99.90;;;;;;4969970;28;20097;-84
2021/08/28 07:53:04;;;;;;;9.63;4.45;;;17.20;99.90;;;;;;4983550;28;20041;-86
2021/08/28 07:55:30;;;;;;;14.57;4.78;;;17.20;99.90;;;;;;4959672;28;20049;-84
2021/08/28 07:57:55;;;;;;;11.93;4.60;;;17.30;99.90;;;;;;4999743;28;20516;-84
2021/08/28 08:00:21;;;;;;;12.77;4.22;;;17.20;99.90;;;;;;4988447;28;20510;-82
2021/08/28 08:02:47;;;;;;;13.20;4.10;;;17.20;99.90;;;;;;4967903;28;20113;-84
2021/08/28 08:05:13;;;;;;;11.15;4.78;;;17.10;99.90;;;;;;4981362;28;20086;-83
2021/08/28 08:07:38;;;;;;;8.82;4.32;;;17.10;99.90;;;;;;4982726;28;20033;-83
2021/08/28 08:10:06;;;;;;;15.27;5.00;;;17.10;99.90;;;;;;4999069;28;20053;-84
2021/08/28 08:12:31;;;;;;;10.55;4.50;;;17.10;99.90;;;;;;4973905;28;20041;-86
2021/08/28 08:14:57;;;;;;;12.00;4.28;;;17.10;99.90;;;;;;4968018;28;20044;-86
2021/08/28 08:17:23;;;;;;;8.25;4.32;;;17.20;99.90;;;;;;4968951;28;20339;-86
2021/08/28 08:19:49;;;;;;;8.35;3.97;;;17.30;99.90;;;;;;4963780;28;20045;-83
2021/08/28 08:22:16;;;;;;;11.30;4.03;;;17.40;99.90;;;;;;4987200;28;21863;-89
2021/08/28 08:24:43;;;;;;;10.63;4.03;;;17.50;99.90;;;;;;4961811;28;20045;-87
2021/08/28 08:27:08;;;;;;;13.45;4.88;;;17.50;99.70;;;;;;4981190;28;20361;-82
2021/08/28 08:29:34;;;;;;;9.27;4.35;;;17.50;99.70;;;;;;4965051;28;20697;-87
2021/08/28 08:32:00;;;;;;;11.02;3.80;;;17.50;99.80;;;;;;4987679;28;20064;-84
2021/08/28 08:34:26;;;;;;;9.30;3.78;;;17.50;99.80;;;;;;4999148;28;20120;-86
2021/08/28 08:36:52;;;;;;;10.20;4.07;;;17.50;99.80;;;;;;5000032;28;20768;-84
2021/08/28 08:39:17;;;;;;;9.52;3.60;;;17.50;99.90;;;;;;4969164;28;20590;-86
2021/08/28 08:41:45;;;;;;;10.77;4.30;;;17.60;99.90;;;;;;4967329;28;20468;-87
2021/08/28 08:44:12;;;;;;;11.30;3.90;;;17.60;99.80;;;;;;5002269;28;20196;-86
2021/08/28 08:46:39;;;;;;;10.43;3.45;;;17.60;98.90;;;;;;4981291;28;20052;-83
2021/08/28 08:49:06;;;;;;;8.95;3.60;;;17.60;98.70;;;;;;4980098;28;20037;-82
2021/08/28 08:51:35;;;;;;;12.82;3.33;;;17.60;98.40;;;;;;5001020;28;20163;-85
2021/08/28 08:54:04;;;;;;;12.30;3.90;;;17.60;98.70;;;;;;5001032;28;20340;-82
2021/08/28 08:56:31;;;;;;;8.27;3.67;;;17.50;98.90;;;;;;4979898;28;20045;-86
2021/08/28 08:58:58;;;;;;;9.10;3.20;;;17.50;98.90;;;;;;4981750;28;20038;-84
2021/08/28 09:01:24;;;;;;;9.52;3.30;;;17.40;98.90;;;;;;4983781;28;20035;-85
2021/08/28 09:03:50;;;;;;;11.80;3.28;;;17.40;98.80;;;;;;4997973;28;20045;-81
2021/08/28 09:06:16;;;;;;;10.77;3.65;;;17.50;99.00;;;;;;4998092;28;20052;-84
2021/08/28 09:08:42;;;;;;;9.32;3.28;;;17.50;98.80;;;;;;4978809;28;20775;-85
2021/08/28 09:11:20;;;;;;;11.27;3.30;;;17.60;98.60;;;;;;4977608;28;20049;-86
2021/08/28 09:13:47;;;;;;;11.77;3.38;;;17.50;98.20;;;;;;4997802;28;20041;-86
2021/08/28 09:16:28;;;;;;;8.52;2.92;;;17.40;98.30;;;;;;4980702;28;20049;-88
2021/08/28 09:18:54;;;;;;;9.25;2.97;;;17.40;98.10;;;;;;4992636;28;20045;-85
2021/08/28 09:21:21;;;;;;;7.95;2.95;;;17.40;98.30;;;;;;4969187;28;20515;-86
2021/08/28 09:23:47;;;;;;;8.55;2.67;;;17.50;98.60;;;;;;5000658;28;20499;-85
2021/08/28 09:26:34;;;;;;;7.60;2.85;;;17.50;98.60;;;;;;5003505;28;20041;-85
2021/08/28 09:29:01;;;;;;;7.10;2.97;;;17.50;98.40;;;;;;4982519;28;20041;-85
2021/08/28 09:31:39;;;;;;;8.93;3.33;;;17.60;98.60;;;;;;4984568;28;20486;-84
2021/08/28 09:34:21;;;;;;;11.15;3.10;;;17.60;98.20;;;;;;4987745;28;20452;-84
2021/08/28 09:37:05;;;;;;;9.70;3.25;;;17.60;98.10;;;;;;4978406;28;20073;-84
2021/08/28 09:39:48;;;;;;;6.55;2.67;;;17.60;98.20;;;;;;5001148;28;20484;-84
2021/08/28 09:42:22;;;;;;;9.23;2.72;;;17.60;98.10;;;;;;4998342;28;20068;-85
2021/08/28 09:44:50;;;;;;;6.20;2.58;;;17.60;97.90;;;;;;4960537;28;20046;-85
2021/08/28 09:47:16;;;;;;;10.18;3.97;;;17.60;98.30;;;;;;5000091;28;20034;-84
2021/08/28 09:49:45;;;;;;;8.48;3.15;;;17.70;98.50;;;;;;4993467;28;20045;-84
2021/08/28 09:52:20;;;;;;;6.65;2.97;;;17.70;98.30;;;;;;4996420;28;20050;-83
2021/08/28 09:54:46;;;;;;;7.63;2.35;;;17.80;98.00;;;;;;5013130;28;20114;-84
2021/08/28 09:57:12;;;;;;;7.65;3.05;;;17.70;97.60;;;;;;4980503;28;20147;-85
2021/08/28 09:59:39;;;;;;;10.57;2.88;;;17.70;97.90;;;;;;4954940;28;20038;-83
2021/08/28 10:02:11;;;;;;;7.00;2.38;;;17.70;98.10;;;;;;4982583;28;20124;-83
2021/08/28 10:04:54;;;;;;;7.35;2.42;;;17.70;97.80;;;;;;5008314;28;20901;-84
2021/08/28 10:07:27;;;;;;;7.25;2.85;;;17.70;97.70;;;;;;4993420;28;20508;-82
2021/08/28 10:10:02;;;;;;;8.15;2.90;;;17.80;98.30;;;;;;4970415;28;20045;-85
2021/08/28 10:12:33;;;;;;;7.97;2.72;;;17.90;98.30;;;;;;4979640;28;20631;-86
2021/08/28 10:15:02;;;;;;;8.10;2.38;;;17.90;98.00;;;;;;4980750;28;20982;-82
2021/08/28 10:17:29;;;;;;;8.90;2.97;;;17.90;97.80;;;;;;5006618;28;20058;-85
2021/08/28 10:19:56;;;;;;;7.43;2.63;;;17.80;97.80;;;;;;4975457;28;20038;-82
2021/08/28 10:22:27;;;;;;;8.80;2.53;;;17.80;97.80;;;;;;4974381;28;20060;-82
2021/08/28 10:24:57;;;;;;;7.00;2.30;;;17.80;97.80;;;;;;4968760;28;20037;-84
2021/08/28 10:27:25;;;;;;;8.32;2.65;;;17.80;97.80;;;;;;4970978;28;20042;-85
2021/08/28 10:29:51;;;;;;;11.95;2.78;;;17.80;97.80;;;;;;4971870;28;20041;-85
2021/08/28 10:32:18;;;;;;;8.40;2.85;;;17.90;97.80;;;;;;4970161;28;20684;-85
2021/08/28 10:34:44;;;;;;;6.50;1.85;;;17.90;98.00;;;;;;4974089;28;20254;-84
2021/08/28 10:37:10;;;;;;;8.98;2.95;;;18.00;97.90;;;;;;4971694;28;20049;-85
2021/08/28 10:39:36;;;;;;;9.77;2.80;;;18.00;97.90;;;;;;4975793;28;20273;-86
2021/08/28 10:42:06;;;;;;;8.82;2.97;;;18.00;97.80;;;;;;4980668;28;20121;-85
2021/08/28 10:44:32;;;;;;;12.70;2.70;;;18.10;97.70;;;;;;4957551;28;20505;-84
2021/08/28 10:46:58;;;;;;;11.80;2.83;;;18.00;97.80;;;;;;4969325;28;20145;-83
2021/08/28 10:49:24;;;;;;;9.20;2.65;;;18.00;98.00;;;;;;4951940;28;20605;-88
2021/08/28 10:51:57;;;;;;;10.80;2.30;;;18.00;98.10;;;;;;4965005;28;20038;-83
2021/08/28 10:54:34;;;;;;;6.47;2.35;;;18.00;98.30;;;;;;4967084;28;20077;-83
2021/08/28 10:57:03;;;;;;;6.75;2.20;;;18.00;98.40;;;;;;4980065;28;20484;-86
2021/08/28 10:59:32;;;;;;;6.45;2.45;;;18.10;98.40;;;;;;4963169;28;20337;-85
2021/08/28 11:02:11;;;;;;;5.68;2.42;;;18.20;98.20;;;;;;4969455;28;20384;-86
2021/08/28 11:04:40;;;;;;;7.75;2.42;;;18.20;97.90;;;;;;4973820;28;20045;-83
2021/08/28 11:07:28;;;;;;;6.05;2.00;;;18.20;97.60;;;;;;4971348;28;20390;-87
2021/08/28 11:10:29;;;;;;;7.05;2.28;;;18.20;97.50;;;;;;5004261;28;20089;-87
2021/08/28 11:13:04;;;;;;;5.30;1.90;;;18.10;97.40;;;;;;5010567;28;20124;-85
2021/08/28 11:15:33;;;;;;;8.90;2.10;;;18.10;97.40;;;;;;5006772;28;21287;-86
2021/08/28 11:18:13;;;;;;;6.10;1.80;;;18.10;97.30;;;;;;5003805;28;20373;-87
2021/08/28 11:20:45;;;;;;;7.57;1.92;;;18.10;97.10;;;;;;4992311;28;20129;-88
2021/08/28 11:23:18;;;;;;;8.05;1.92;;;18.00;96.80;;;;;;4990934;28;20374;-89
2021/08/28 11:25:49;;;;;;;4.40;1.90;;;17.90;96.80;;;;;;5002663;28;20125;-86
2021/08/28 11:28:19;;;;;;;7.30;2.10;;;17.80;96.70;;;;;;4985634;28;20045;-83
2021/08/28 11:30:44;;;;;;;6.22;2.03;;;17.70;96.90;;;;;;4985969;28;20092;-86
2021/08/28 11:33:20;;;;;;;6.55;2.10;;;17.70;97.10;;;;;;4995315;28;20037;-86
2021/08/28 11:36:22;;;;;;;9.63;2.03;;;17.50;97.20;;;;;;5022331;28;20062;-85
2021/08/28 11:38:50;;;;;;;9.40;1.75;;;17.50;97.30;;;;;;5002443;28;20145;-86
2021/08/28 11:41:21;;;;;;;9.13;2.33;;;17.50;98.00;;;;;;5008416;28;20048;-88
2021/08/28 11:43:47;;;;;;;8.38;2.00;;;17.60;98.20;;;;;;4989516;28;20049;-87
2021/08/28 11:46:17;;;;;;;8.60;2.20;;;17.70;98.20;;;;;;4973453;28;20312;-87
2021/08/28 11:48:46;;;;;;;6.60;1.85;;;17.80;98.10;;;;;;4937690;28;20050;-83
2021/08/28 11:51:23;;;;;;;5.97;1.92;;;17.90;97.30;;;;;;4967672;28;20048;-87
2021/08/28 11:53:58;;;;;;;7.07;2.88;;;18.00;97.50;;;;;;4968139;28;20041;-86
2021/08/28 11:56:29;;;;;;;6.07;2.17;;;18.10;97.40;;;;;;4976573;28;20116;-85
2021/08/28 11:59:01;;;;;;;6.68;2.10;;;18.10;97.40;;;;;;4958525;28;20791;-86
2021/08/28 12:01:36;;;;;;;7.40;2.53;;;18.20;97.50;;;;;;4972076;28;20091;-85
2021/08/28 12:04:05;;;;;;;8.98;2.03;;;18.20;97.20;;;;;;4987944;28;20042;-87
2021/08/28 12:06:32;;;;;;;6.50;2.00;;;18.20;96.20;;;;;;4983710;28;20041;-87
2021/08/28 12:08:58;;;;;;;7.60;2.15;;;18.20;96.30;;;;;;4970610;28;21150;-86
2021/08/28 12:11:26;;;;;;;7.60;2.00;;;18.10;96.20;;;;;;4961894;28;22236;-85
2021/08/28 12:13:55;;;;;;;8.90;2.22;;;18.10;96.40;;;;;;4967701;28;20050;-82
2021/08/28 12:16:41;;;;;;;8.75;2.17;;;18.10;96.60;;;;;;4963172;28;20050;-87
2021/08/28 12:19:19;;;;;;;10.20;2.00;;;18.10;96.00;;;;;;4966144;28;20584;-87
2021/08/28 12:21:52;;;;;;;7.13;2.20;;;18.10;96.20;;;;;;4971857;28;20045;-88
2021/08/28 12:24:17;;;;;;;8.88;1.95;;;18.10;96.50;;;;;;4974812;28;20096;-86
2021/08/28 12:26:56;;;;;;;6.35;1.95;;;18.10;96.30;;;;;;4964574;28;20050;-86
2021/08/28 12:29:44;;;;;;;7.63;1.90;;;18.00;96.20;;;;;;4979319;28;20053;-86
2021/08/28 12:32:14;;;;;;;12.27;2.15;;;18.00;96.10;;;;;;4983024;28;20050;-86
2021/08/28 12:34:53;;;;;;;8.75;2.17;;;18.00;96.20;;;;;;4981091;28;20041;-87
2021/08/28 12:37:22;;;;;;;5.03;2.00;;;18.00;96.20;;;;;;4980773;28;20523;-86
2021/08/28 12:39:51;;;;;;;5.68;1.88;;;18.00;96.20;;;;;;4999459;28;20069;-86
2021/08/28 12:42:20;;;;;;;7.40;2.00;;;18.00;96.30;;;;;;4973616;28;20358;-83
2021/08/28 12:44:52;;;;;;;7.35;1.80;;;18.00;96.40;;;;;;4963615;28;20053;-87
2021/08/28 12:47:29;;;;;;;7.65;2.22;;;18.00;96.50;;;;;;4960056;28;20052;-86